createdAt,value
2017-08-27T00:00:02.985Z,14.8
2017-08-27T00:15:02.545Z,14.8
2017-08-27T00:30:03.213Z,14.8
2017-08-27T00:45:02.761Z,14.7
2017-08-27T01:00:03.357Z,14.7
2017-08-27T01:15:02.995Z,14.7
2017-08-27T01:30:02.718Z,14.7
2017-08-27T01:45:03.287Z,14.7
2017-08-27T02:00:02.862Z,14.6
2017-08-27T02:15:03.426Z,14.6
2017-08-27T02:30:03.588Z,14.6
2017-08-27T02:45:02.701Z,14.6
2017-08-27T03:00:05.351Z,14.6
2017-08-27T03:15:03.198Z,14.6
2017-08-27T03:30:03.760Z,14.6
2017-08-27T03:45:03.463Z,14.6
2017-08-27T04:00:09.948Z,14.6
2017-08-27T04:15:06.451Z,14.6
2017-08-27T04:30:06.392Z,14.6
2017-08-27T04:45:05.367Z,14.6
2017-08-27T05:00:07.104Z,14.6
2017-08-27T05:15:06.583Z,14.6
2017-08-27T05:30:06.745Z,14.6
2017-08-27T05:45:05.058Z,14.6
2017-08-27T06:00:07.980Z,14.6
2017-08-27T06:15:05.955Z,14.6
2017-08-27T06:30:06.063Z,14.6
2017-08-27T06:45:06.017Z,14.6
2017-08-27T07:00:06.629Z,14.7
2017-08-27T07:15:06.152Z,14.7
2017-08-27T07:30:05.917Z,14.8
2017-08-27T07:45:06.111Z,14.8
2017-08-27T08:00:06.500Z,14.8
2017-08-27T08:15:06.259Z,14.9
2017-08-27T08:30:06.016Z,14.9
2017-08-27T08:45:04.928Z,15
2017-08-27T09:00:06.328Z,15.1
2017-08-27T09:15:04.631Z,15.1
2017-08-27T09:30:05.401Z,15.2
2017-08-27T09:45:06.360Z,15.2
2017-08-27T10:00:05.288Z,15.3
2017-08-27T10:15:05.596Z,15.4
2017-08-27T10:30:05.310Z,15.4
2017-08-27T10:45:05.484Z,15.4
2017-08-27T11:00:04.953Z,15.5
2017-08-27T11:15:05.492Z,15.5
2017-08-27T11:30:05.427Z,15.6
2017-08-27T11:45:04.858Z,15.6
2017-08-27T12:00:06.172Z,15.7
2017-08-27T12:15:05.291Z,15.8
2017-08-27T12:30:05.633Z,15.8
2017-08-27T12:45:04.732Z,15.8
2017-08-27T13:00:05.758Z,15.8
2017-08-27T13:15:04.769Z,15.8
2017-08-27T13:30:06.338Z,15.8
2017-08-27T13:45:06.112Z,15.8
2017-08-27T14:00:04.631Z,15.8
2017-08-27T14:15:06.129Z,15.8
2017-08-27T14:30:06.119Z,15.8
2017-08-27T14:45:05.793Z,15.8
2017-08-27T15:00:06.170Z,15.8
2017-08-27T15:15:05.969Z,15.8
2017-08-27T15:30:06.016Z,15.8
2017-08-27T15:45:06.124Z,15.8
2017-08-27T16:00:05.731Z,15.8
2017-08-27T16:15:05.729Z,15.8
2017-08-27T16:30:05.576Z,15.8
2017-08-27T16:45:04.225Z,15.8
2017-08-27T17:00:05.562Z,15.7
2017-08-27T17:15:05.543Z,15.7
2017-08-27T17:30:05.551Z,15.7
2017-08-27T17:45:04.283Z,15.6
2017-08-27T18:00:04.333Z,15.6
2017-08-27T18:15:04.028Z,15.6
2017-08-27T18:30:02.682Z,15.6
2017-08-27T18:45:03.304Z,15.6
2017-08-27T19:00:03.009Z,15.5
2017-08-27T19:15:02.700Z,15.5
2017-08-27T19:30:03.398Z,15.4
2017-08-27T19:45:02.997Z,15.4
2017-08-27T20:00:02.715Z,15.4
2017-08-27T20:15:03.294Z,15.4
2017-08-27T20:30:02.999Z,15.3
2017-08-27T20:45:02.556Z,15.3
2017-08-27T21:00:03.172Z,15.2
2017-08-27T21:15:02.816Z,15.2
2017-08-27T21:30:03.466Z,15.2
2017-08-27T21:45:03.039Z,15.2
2017-08-27T22:00:05.532Z,15.1
2017-08-27T22:15:03.161Z,15.1
2017-08-27T22:30:03.133Z,15.1
2017-08-27T22:45:03.092Z,15.1
2017-08-27T23:00:03.141Z,15
2017-08-27T23:15:02.782Z,15
2017-08-27T23:30:03.508Z,14.9
2017-08-27T23:45:03.116Z,14.9
